sensor_id;sensor_type;location;lat;lon;timestamp;temperature;humidity
65369;HTU21D;51970;53.484;49.488;2022-12-07T00:01:24;-9.91;75.35
65369;HTU21D;51970;53.484;49.488;2022-12-07T00:03:53;-7.11;74.69
65369;HTU21D;51970;53.484;49.488;2022-12-07T00:06:22;-9.02;74.52
65369;HTU21D;51970;53.484;49.488;2022-12-07T00:08:49;-1.82;74.44
65369;HTU21D;51970;53.484;49.488;2022-12-07T00:11:20;-4.01;74.13
65369;HTU21D;51970;53.484;49.488;2022-12-07T00:13:51;-10.60;74.02
65369;HTU21D;51970;53.484;49.488;2022-12-07T00:16:22;-9.91;74.54
65369;HTU21D;51970;53.484;49.488;2022-12-07T00:18:49;-10.20;74.75
65369;HTU21D;51970;53.484;49.488;2022-12-07T00:21:19;-7.11;75.12
65369;HTU21D;51970;53.484;49.488;2022-12-07T00:23:50;-9.61;75.20
65369;HTU21D;51970;53.484;49.488;2022-12-07T00:26:19;-10.14;75.31
65369;HTU21D;51970;53.484;49.488;2022-12-07T00:28:57;-10.35;75.20
65369;HTU21D;51970;53.484;49.488;2022-12-07T00:31:32;-9.87;74.89
65369;HTU21D;51970;53.484;49.488;2022-12-07T00:34:05;-8.84;74.96
65369;HTU21D;51970;53.484;49.488;2022-12-07T00:36:40;-8.55;75.05
65369;HTU21D;51970;53.484;49.488;2022-12-07T00:39:08;-10.52;74.99
65369;HTU21D;51970;53.484;49.488;2022-12-07T00:41:34;-4.32;74.49
65369;HTU21D;51970;53.484;49.488;2022-12-07T00:44:01;-4.91;74.32
65369;HTU21D;51970;53.484;49.488;2022-12-07T00:46:31;-9.37;73.83
65369;HTU21D;51970;53.484;49.488;2022-12-07T00:49:00;-8.96;73.42
65369;HTU21D;51970;53.484;49.488;2022-12-07T00:51:26;-9.23;72.90
65369;HTU21D;51970;53.484;49.488;2022-12-07T00:53:53;-8.34;73.99
65369;HTU21D;51970;53.484;49.488;2022-12-07T00:56:25;-8.56;73.86
65369;HTU21D;51970;53.484;49.488;2022-12-07T00:58:52;-10.81;73.52
65369;HTU21D;51970;53.484;49.488;2022-12-07T01:01:19;-4.99;73.35
65369;HTU21D;51970;53.484;49.488;2022-12-07T01:03:48;-6.55;74.12
65369;HTU21D;51970;53.484;49.488;2022-12-07T01:06:17;-9.98;74.25
65369;HTU21D;51970;53.484;49.488;2022-12-07T01:08:47;-4.78;74.26
65369;HTU21D;51970;53.484;49.488;2022-12-07T01:11:20;-3.35;74.64
65369;HTU21D;51970;53.484;49.488;2022-12-07T01:13:46;-9.09;74.84
65369;HTU21D;51970;53.484;49.488;2022-12-07T01:16:15;-10.91;75.03
65369;HTU21D;51970;53.484;49.488;2022-12-07T01:18:46;-10.79;75.20
65369;HTU21D;51970;53.484;49.488;2022-12-07T01:21:17;-10.88;74.99
65369;HTU21D;51970;53.484;49.488;2022-12-07T01:23:44;-9.31;75.12
65369;HTU21D;51970;53.484;49.488;2022-12-07T01:26:12;-10.62;75.12
65369;HTU21D;51970;53.484;49.488;2022-12-07T01:28:39;-9.26;74.79
65369;HTU21D;51970;53.484;49.488;2022-12-07T01:31:08;-8.80;74.07
65369;HTU21D;51970;53.484;49.488;2022-12-07T01:33:37;-7.31;74.99
65369;HTU21D;51970;53.484;49.488;2022-12-07T01:36:21;-7.04;74.76
65369;HTU21D;51970;53.484;49.488;2022-12-07T01:38:49;-9.38;74.76
65369;HTU21D;51970;53.484;49.488;2022-12-07T01:41:18;-10.72;74.86
65369;HTU21D;51970;53.484;49.488;2022-12-07T01:44:08;-10.89;75.06
65369;HTU21D;51970;53.484;49.488;2022-12-07T01:46:34;-10.53;74.99
65369;HTU21D;51970;53.484;49.488;2022-12-07T01:49:03;-0.69;75.10
65369;HTU21D;51970;53.484;49.488;2022-12-07T01:51:32;-6.61;75.02
65369;HTU21D;51970;53.484;49.488;2022-12-07T01:54:00;-4.22;74.77
65369;HTU21D;51970;53.484;49.488;2022-12-07T01:56:27;-6.93;74.80
65369;HTU21D;51970;53.484;49.488;2022-12-07T01:58:55;-7.54;74.81
65369;HTU21D;51970;53.484;49.488;2022-12-07T02:01:22;-10.87;75.18
65369;HTU21D;51970;53.484;49.488;2022-12-07T02:03:50;-8.39;74.48
65369;HTU21D;51970;53.484;49.488;2022-12-07T02:06:20;-8.25;74.35
65369;HTU21D;51970;53.484;49.488;2022-12-07T02:08:48;-8.95;74.22
65369;HTU21D;51970;53.484;49.488;2022-12-07T02:11:15;-0.52;73.66
65369;HTU21D;51970;53.484;49.488;2022-12-07T02:13:43;-2.39;73.56
65369;HTU21D;51970;53.484;49.488;2022-12-07T02:16:51;-10.82;73.96
65369;HTU21D;51970;53.484;49.488;2022-12-07T02:19:53;-10.22;73.03
65369;HTU21D;51970;53.484;49.488;2022-12-07T02:22:52;-10.91;73.63
65369;HTU21D;51970;53.484;49.488;2022-12-07T02:25:39;-9.32;73.98
65369;HTU21D;51970;53.484;49.488;2022-12-07T02:31:04;-7.17;72.91
65369;HTU21D;51970;53.484;49.488;2022-12-07T02:34:14;-10.67;73.15
65369;HTU21D;51970;53.484;49.488;2022-12-07T02:36:51;-8.08;73.06
65369;HTU21D;51970;53.484;49.488;2022-12-07T02:39:28;-3.28;73.19
65369;HTU21D;51970;53.484;49.488;2022-12-07T02:42:04;-6.37;73.35
65369;HTU21D;51970;53.484;49.488;2022-12-07T02:44:32;-9.40;72.74
65369;HTU21D;51970;53.484;49.488;2022-12-07T02:47:03;-8.22;73.43
65369;HTU21D;51970;53.484;49.488;2022-12-07T02:49:36;-7.55;73.24
65369;HTU21D;51970;53.484;49.488;2022-12-07T02:52:03;-7.41;73.54
65369;HTU21D;51970;53.484;49.488;2022-12-07T02:54:30;-4.34;74.38
65369;HTU21D;51970;53.484;49.488;2022-12-07T03:08:10;-8.23;74.18
65369;HTU21D;51970;53.484;49.488;2022-12-07T03:11:05;-10.78;73.83
65369;HTU21D;51970;53.484;49.488;2022-12-07T03:13:53;-9.97;73.68
65369;HTU21D;51970;53.484;49.488;2022-12-07T03:17:13;-7.15;73.90
65369;HTU21D;51970;53.484;49.488;2022-12-07T03:20:09;-8.34;73.96
65369;HTU21D;51970;53.484;49.488;2022-12-07T03:22:38;-8.15;73.84
65369;HTU21D;51970;53.484;49.488;2022-12-07T03:25:11;-6.34;73.16
65369;HTU21D;51970;53.484;49.488;2022-12-07T03:27:53;-10.18;73.73
65369;HTU21D;51970;53.484;49.488;2022-12-07T03:30:27;-10.27;73.80
65369;HTU21D;51970;53.484;49.488;2022-12-07T03:33:17;-7.97;73.93
65369;HTU21D;51970;53.484;49.488;2022-12-07T03:37:14;-10.18;73.78
65369;HTU21D;51970;53.484;49.488;2022-12-07T03:40:24;-11.19;73.58
65369;HTU21D;51970;53.484;49.488;2022-12-07T03:43:01;-10.16;73.56
65369;HTU21D;51970;53.484;49.488;2022-12-07T03:45:43;-8.18;73.71
65369;HTU21D;51970;53.484;49.488;2022-12-07T03:48:55;-10.37;74.39
65369;HTU21D;51970;53.484;49.488;2022-12-07T03:52:47;-8.28;74.89
65369;HTU21D;51970;53.484;49.488;2022-12-07T03:55:31;-8.26;74.64
65369;HTU21D;51970;53.484;49.488;2022-12-07T03:58:37;-9.84;74.41
65369;HTU21D;51970;53.484;49.488;2022-12-07T04:01:06;-8.99;74.38
65369;HTU21D;51970;53.484;49.488;2022-12-07T04:03:36;-4.49;74.46
65369;HTU21D;51970;53.484;49.488;2022-12-07T04:06:04;-7.34;74.66
65369;HTU21D;51970;53.484;49.488;2022-12-07T04:08:34;-1.11;74.66
65369;HTU21D;51970;53.484;49.488;2022-12-07T04:28:28;-5.43;74.80
65369;HTU21D;51970;53.484;49.488;2022-12-07T04:33:53;-9.41;74.72
65369;HTU21D;51970;53.484;49.488;2022-12-07T04:36:22;-10.68;74.71
65369;HTU21D;51970;53.484;49.488;2022-12-07T04:39:02;-8.97;74.83
65369;HTU21D;51970;53.484;49.488;2022-12-07T04:41:59;-8.41;74.55
65369;HTU21D;51970;53.484;49.488;2022-12-07T04:44:28;-11.41;74.43
65369;HTU21D;51970;53.484;49.488;2022-12-07T04:47:01;-8.44;74.41
65369;HTU21D;51970;53.484;49.488;2022-12-07T04:49:28;-11.42;74.45
65369;HTU21D;51970;53.484;49.488;2022-12-07T04:52:30;-11.52;74.48
65369;HTU21D;51970;53.484;49.488;2022-12-07T04:55:35;-10.34;74.50
65369;HTU21D;51970;53.484;49.488;2022-12-07T04:58:07;-11.68;74.64
65369;HTU21D;51970;53.484;49.488;2022-12-07T05:00:45;-8.65;74.57
65369;HTU21D;51970;53.484;49.488;2022-12-07T05:03:24;-11.68;74.70
65369;HTU21D;51970;53.484;49.488;2022-12-07T05:06:41;-11.15;74.60
65369;HTU21D;51970;53.484;49.488;2022-12-07T05:09:58;-11.55;74.30
65369;HTU21D;51970;53.484;49.488;2022-12-07T05:13:58;-11.55;74.04
65369;HTU21D;51970;53.484;49.488;2022-12-07T05:17:33;-11.49;73.94
65369;HTU21D;51970;53.484;49.488;2022-12-07T05:27:41;-8.05;73.83
65369;HTU21D;51970;53.484;49.488;2022-12-07T05:31:15;-3.43;73.53
65369;HTU21D;51970;53.484;49.488;2022-12-07T05:35:04;-9.56;73.51
65369;HTU21D;51970;53.484;49.488;2022-12-07T05:38:29;-11.11;73.68
65369;HTU21D;51970;53.484;49.488;2022-12-07T05:41:42;-11.15;73.61
65369;HTU21D;51970;53.484;49.488;2022-12-07T05:45:00;-9.13;73.45
65369;HTU21D;51970;53.484;49.488;2022-12-07T05:48:02;-9.17;72.56
65369;HTU21D;51970;53.484;49.488;2022-12-07T05:51:46;-10.41;72.40
65369;HTU21D;51970;53.484;49.488;2022-12-07T05:55:24;-11.11;72.20
65369;HTU21D;51970;53.484;49.488;2022-12-07T06:02:50;-11.19;71.72
65369;HTU21D;51970;53.484;49.488;2022-12-07T06:06:44;-9.36;71.38
65369;HTU21D;51970;53.484;49.488;2022-12-07T06:18:08;-9.90;71.37
65369;HTU21D;51970;53.484;49.488;2022-12-07T06:24:59;-11.02;70.80
65369;HTU21D;51970;53.484;49.488;2022-12-07T06:32:39;-10.49;70.51
65369;HTU21D;51970;53.484;49.488;2022-12-07T06:36:40;-10.82;70.32
65369;HTU21D;51970;53.484;49.488;2022-12-07T06:40:19;-7.55;69.20
65369;HTU21D;51970;53.484;49.488;2022-12-07T06:43:29;-10.60;69.36
65369;HTU21D;51970;53.484;49.488;2022-12-07T06:45:59;-10.76;68.94
65369;HTU21D;51970;53.484;49.488;2022-12-07T06:48:30;-10.23;68.88
65369;HTU21D;51970;53.484;49.488;2022-12-07T06:51:16;-10.74;68.41
65369;HTU21D;51970;53.484;49.488;2022-12-07T06:54:35;-10.74;68.70
65369;HTU21D;51970;53.484;49.488;2022-12-07T06:57:17;-8.81;68.48
65369;HTU21D;51970;53.484;49.488;2022-12-07T07:07:43;-9.61;67.33
65369;HTU21D;51970;53.484;49.488;2022-12-07T07:11:06;-10.26;66.44
65369;HTU21D;51970;53.484;49.488;2022-12-07T07:14:04;-10.11;66.25
65369;HTU21D;51970;53.484;49.488;2022-12-07T07:18:06;-10.17;66.23
65369;HTU21D;51970;53.484;49.488;2022-12-07T07:21:36;-9.82;66.40
65369;HTU21D;51970;53.484;49.488;2022-12-07T07:27:09;-5.68;66.53
65369;HTU21D;51970;53.484;49.488;2022-12-07T07:30:33;-7.10;66.03
65369;HTU21D;51970;53.484;49.488;2022-12-07T07:33:48;-9.78;66.01
65369;HTU21D;51970;53.484;49.488;2022-12-07T07:37:15;-8.52;65.64
65369;HTU21D;51970;53.484;49.488;2022-12-07T07:40:34;-9.52;65.29
65369;HTU21D;51970;53.484;49.488;2022-12-07T07:43:34;-8.14;64.98
65369;HTU21D;51970;53.484;49.488;2022-12-07T07:46:09;-9.17;65.19
65369;HTU21D;51970;53.484;49.488;2022-12-07T07:48:51;-9.58;65.59
65369;HTU21D;51970;53.484;49.488;2022-12-07T07:53:20;-4.82;64.86
65369;HTU21D;51970;53.484;49.488;2022-12-07T07:57:29;-4.68;64.86
65369;HTU21D;51970;53.484;49.488;2022-12-07T08:00:48;-9.57;64.48
65369;HTU21D;51970;53.484;49.488;2022-12-07T08:04:11;-9.42;64.87
65369;HTU21D;51970;53.484;49.488;2022-12-07T08:07:18;-7.13;64.63
65369;HTU21D;51970;53.484;49.488;2022-12-07T08:09:52;-9.46;64.75
65369;HTU21D;51970;53.484;49.488;2022-12-07T08:12:54;-7.51;65.14
65369;HTU21D;51970;53.484;49.488;2022-12-07T08:16:15;-8.71;65.48
65369;HTU21D;51970;53.484;49.488;2022-12-07T08:19:01;-9.47;65.46
65369;HTU21D;51970;53.484;49.488;2022-12-07T08:22:23;-9.34;65.23
65369;HTU21D;51970;53.484;49.488;2022-12-07T08:29:54;-9.03;64.54
65369;HTU21D;51970;53.484;49.488;2022-12-07T08:32:35;-8.94;64.68
65369;HTU21D;51970;53.484;49.488;2022-12-07T08:36:17;-6.68;64.96
65369;HTU21D;51970;53.484;49.488;2022-12-07T08:39:58;-9.16;65.01
65369;HTU21D;51970;53.484;49.488;2022-12-07T08:43:52;-7.89;64.49
65369;HTU21D;51970;53.484;49.488;2022-12-07T08:47:08;-8.75;63.56
65369;HTU21D;51970;53.484;49.488;2022-12-07T08:50:21;-8.93;63.44
65369;HTU21D;51970;53.484;49.488;2022-12-07T08:53:10;-8.71;63.44
65369;HTU21D;51970;53.484;49.488;2022-12-07T08:56:22;-8.63;63.31
65369;HTU21D;51970;53.484;49.488;2022-12-07T09:00:06;-8.54;62.50
65369;HTU21D;51970;53.484;49.488;2022-12-07T09:04:36;-8.86;62.14
65369;HTU21D;51970;53.484;49.488;2022-12-07T09:08:53;-7.86;63.48
65369;HTU21D;51970;53.484;49.488;2022-12-07T09:11:50;-8.83;62.78
65369;HTU21D;51970;53.484;49.488;2022-12-07T09:14:59;-8.60;63.05
65369;HTU21D;51970;53.484;49.488;2022-12-07T09:18:16;0.57;62.79
65369;HTU21D;51970;53.484;49.488;2022-12-07T09:21:11;-8.55;62.79
65369;HTU21D;51970;53.484;49.488;2022-12-07T09:24:38;-8.33;62.84
65369;HTU21D;51970;53.484;49.488;2022-12-07T09:28:05;-8.51;63.36
65369;HTU21D;51970;53.484;49.488;2022-12-07T09:32:01;-7.87;63.06
65369;HTU21D;51970;53.484;49.488;2022-12-07T09:36:14;-8.60;63.44
65369;HTU21D;51970;53.484;49.488;2022-12-07T09:38:54;-8.60;63.24
65369;HTU21D;51970;53.484;49.488;2022-12-07T09:49:41;-6.43;62.54
65369;HTU21D;51970;53.484;49.488;2022-12-07T09:53:08;-6.29;62.71
65369;HTU21D;51970;53.484;49.488;2022-12-07T09:56:18;-8.45;61.92
65369;HTU21D;51970;53.484;49.488;2022-12-07T09:59:52;-8.41;62.08
65369;HTU21D;51970;53.484;49.488;2022-12-07T10:03:08;-7.96;61.80
65369;HTU21D;51970;53.484;49.488;2022-12-07T10:06:33;-8.43;61.91
65369;HTU21D;51970;53.484;49.488;2022-12-07T10:09:21;-8.30;61.57
65369;HTU21D;51970;53.484;49.488;2022-12-07T10:12:25;-7.46;61.62
65369;HTU21D;51970;53.484;49.488;2022-12-07T10:15:07;-4.66;62.13
65369;HTU21D;51970;53.484;49.488;2022-12-07T10:19:19;-8.49;62.14
65369;HTU21D;51970;53.484;49.488;2022-12-07T10:22:26;-8.46;62.24
65369;HTU21D;51970;53.484;49.488;2022-12-07T10:25:22;-7.87;61.81
65369;HTU21D;51970;53.484;49.488;2022-12-07T10:28:49;-8.52;61.82
65369;HTU21D;51970;53.484;49.488;2022-12-07T10:35:30;-8.63;62.27
65369;HTU21D;51970;53.484;49.488;2022-12-07T10:38:58;-8.34;62.31
65369;HTU21D;51970;53.484;49.488;2022-12-07T10:42:31;-8.66;62.71
65369;HTU21D;51970;53.484;49.488;2022-12-07T10:49:27;-8.85;62.95
65369;HTU21D;51970;53.484;49.488;2022-12-07T11:08:54;-8.78;62.98
65369;HTU21D;51970;53.484;49.488;2022-12-07T11:16:55;-9.19;63.35
65369;HTU21D;51970;53.484;49.488;2022-12-07T11:30:33;-9.57;63.98
65369;HTU21D;51970;53.484;49.488;2022-12-07T11:37:31;-9.68;65.08
65369;HTU21D;51970;53.484;49.488;2022-12-07T11:41:31;-9.52;65.16
65369;HTU21D;51970;53.484;49.488;2022-12-07T11:44:25;-9.63;64.88
65369;HTU21D;51970;53.484;49.488;2022-12-07T11:47:55;-9.66;65.10
65369;HTU21D;51970;53.484;49.488;2022-12-07T11:52:02;-9.63;65.07
65369;HTU21D;51970;53.484;49.488;2022-12-07T11:59:52;-9.58;65.43
65369;HTU21D;51970;53.484;49.488;2022-12-07T12:03:36;-1.97;65.51
65369;HTU21D;51970;53.484;49.488;2022-12-07T12:28:24;-9.02;66.00
65369;HTU21D;51970;53.484;49.488;2022-12-07T12:36:24;-10.17;66.41
65369;HTU21D;51970;53.484;49.488;2022-12-07T12:55:15;-10.25;67.06
65369;HTU21D;51970;53.484;49.488;2022-12-07T12:58:38;-7.26;67.17
65369;HTU21D;51970;53.484;49.488;2022-12-07T13:02:38;-10.31;67.17
65369;HTU21D;51970;53.484;49.488;2022-12-07T13:06:34;-9.26;68.07
65369;HTU21D;51970;53.484;49.488;2022-12-07T13:09:33;-10.26;67.54
65369;HTU21D;51970;53.484;49.488;2022-12-07T13:13:29;-10.32;67.09
65369;HTU21D;51970;53.484;49.488;2022-12-07T13:17:57;-10.37;67.55
65369;HTU21D;51970;53.484;49.488;2022-12-07T13:24:23;-8.87;67.69
65369;HTU21D;51970;53.484;49.488;2022-12-07T13:27:21;-7.23;67.95
65369;HTU21D;51970;53.484;49.488;2022-12-07T13:33:51;-9.36;68.62
65369;HTU21D;51970;53.484;49.488;2022-12-07T13:37:49;-8.21;69.21
65369;HTU21D;51970;53.484;49.488;2022-12-07T13:41:19;-10.01;68.55
65369;HTU21D;51970;53.484;49.488;2022-12-07T13:48:42;-9.97;69.12
65369;HTU21D;51970;53.484;49.488;2022-12-07T13:52:46;-10.78;69.16
65369;HTU21D;51970;53.484;49.488;2022-12-07T13:56:47;-10.78;68.78
65369;HTU21D;51970;53.484;49.488;2022-12-07T14:00:14;-8.26;68.95
65369;HTU21D;51970;53.484;49.488;2022-12-07T14:04:15;-10.59;69.33
65369;HTU21D;51970;53.484;49.488;2022-12-07T14:08:22;-11.03;69.58
65369;HTU21D;51970;53.484;49.488;2022-12-07T14:18:05;-11.10;69.77
65369;HTU21D;51970;53.484;49.488;2022-12-07T14:23:44;-10.29;69.82
65369;HTU21D;51970;53.484;49.488;2022-12-07T14:27:30;-6.60;69.79
65369;HTU21D;51970;53.484;49.488;2022-12-07T14:31:34;-11.20;69.80
65369;HTU21D;51970;53.484;49.488;2022-12-07T14:35:18;-11.15;69.52
65369;HTU21D;51970;53.484;49.488;2022-12-07T14:38:58;-10.18;69.74
65369;HTU21D;51970;53.484;49.488;2022-12-07T14:42:11;-11.03;69.33
65369;HTU21D;51970;53.484;49.488;2022-12-07T14:46:14;-8.31;69.94
65369;HTU21D;51970;53.484;49.488;2022-12-07T14:49:44;-10.55;70.16
65369;HTU21D;51970;53.484;49.488;2022-12-07T14:53:01;-8.99;70.24
65369;HTU21D;51970;53.484;49.488;2022-12-07T14:55:54;-11.39;70.16
65369;HTU21D;51970;53.484;49.488;2022-12-07T14:59:23;-11.41;70.20
65369;HTU21D;51970;53.484;49.488;2022-12-07T15:02:25;-9.79;70.07
65369;HTU21D;51970;53.484;49.488;2022-12-07T15:04:55;-10.45;69.70
65369;HTU21D;51970;53.484;49.488;2022-12-07T15:07:41;-11.37;69.90
65369;HTU21D;51970;53.484;49.488;2022-12-07T15:10:36;-10.53;69.86
65369;HTU21D;51970;53.484;49.488;2022-12-07T15:13:52;-7.48;69.60
65369;HTU21D;51970;53.484;49.488;2022-12-07T15:17:26;-8.01;69.77
65369;HTU21D;51970;53.484;49.488;2022-12-07T15:20:14;-11.69;69.97
65369;HTU21D;51970;53.484;49.488;2022-12-07T15:23:48;-7.89;70.50
65369;HTU21D;51970;53.484;49.488;2022-12-07T15:31:12;-9.39;70.51
65369;HTU21D;51970;53.484;49.488;2022-12-07T15:34:36;-10.27;70.78
65369;HTU21D;51970;53.484;49.488;2022-12-07T15:38:32;-10.52;70.73
65369;HTU21D;51970;53.484;49.488;2022-12-07T15:49:37;-11.89;71.27
65369;HTU21D;51970;53.484;49.488;2022-12-07T15:52:22;-9.73;71.31
65369;HTU21D;51970;53.484;49.488;2022-12-07T15:55:25;-11.01;71.43
65369;HTU21D;51970;53.484;49.488;2022-12-07T15:58:23;-11.88;71.51
65369;HTU21D;51970;53.484;49.488;2022-12-07T16:01:39;-11.74;71.30
65369;HTU21D;51970;53.484;49.488;2022-12-07T16:05:14;-11.05;70.95
65369;HTU21D;51970;53.484;49.488;2022-12-07T16:08:01;-11.23;70.64
65369;HTU21D;51970;53.484;49.488;2022-12-07T16:10:53;-11.93;70.71
65369;HTU21D;51970;53.484;49.488;2022-12-07T16:15:14;-9.66;70.30
65369;HTU21D;51970;53.484;49.488;2022-12-07T16:18:56;-10.25;70.18
65369;HTU21D;51970;53.484;49.488;2022-12-07T16:22:45;-12.00;70.22
65369;HTU21D;51970;53.484;49.488;2022-12-07T16:27:03;-11.80;70.39
65369;HTU21D;51970;53.484;49.488;2022-12-07T16:29:50;-11.21;69.85
65369;HTU21D;51970;53.484;49.488;2022-12-07T16:33:10;-10.67;70.07
65369;HTU21D;51970;53.484;49.488;2022-12-07T16:36:20;-10.56;70.05
65369;HTU21D;51970;53.484;49.488;2022-12-07T16:39:04;-9.26;70.40
65369;HTU21D;51970;53.484;49.488;2022-12-07T16:41:41;-9.53;70.83
65369;HTU21D;51970;53.484;49.488;2022-12-07T16:44:26;-11.30;70.94
65369;HTU21D;51970;53.484;49.488;2022-12-07T16:47:39;-12.20;70.91
65369;HTU21D;51970;53.484;49.488;2022-12-07T16:51:11;-8.65;70.91
65369;HTU21D;51970;53.484;49.488;2022-12-07T16:54:28;-9.69;71.15
65369;HTU21D;51970;53.484;49.488;2022-12-07T16:58:15;-12.25;71.13
65369;HTU21D;51970;53.484;49.488;2022-12-07T17:01:54;-6.48;71.40
65369;HTU21D;51970;53.484;49.488;2022-12-07T17:04:25;-7.66;71.64
65369;HTU21D;51970;53.484;49.488;2022-12-07T17:07:22;-8.45;71.76
65369;HTU21D;51970;53.484;49.488;2022-12-07T17:10:27;-12.13;71.89
65369;HTU21D;51970;53.484;49.488;2022-12-07T17:13:51;-11.70;71.19
65369;HTU21D;51970;53.484;49.488;2022-12-07T17:16:59;-12.21;71.18
65369;HTU21D;51970;53.484;49.488;2022-12-07T17:19:55;-11.32;71.27
65369;HTU21D;51970;53.484;49.488;2022-12-07T17:22:53;-10.07;71.10
65369;HTU21D;51970;53.484;49.488;2022-12-07T17:26:22;-10.94;70.93
65369;HTU21D;51970;53.484;49.488;2022-12-07T17:29:44;-10.68;70.44
65369;HTU21D;51970;53.484;49.488;2022-12-07T17:32:41;-7.99;70.51
65369;HTU21D;51970;53.484;49.488;2022-12-07T17:36:10;-12.08;70.61
65369;HTU21D;51970;53.484;49.488;2022-12-07T17:39:28;-7.98;71.34
65369;HTU21D;51970;53.484;49.488;2022-12-07T17:42:33;-12.04;71.35
65369;HTU21D;51970;53.484;49.488;2022-12-07T17:46:27;-12.21;71.17
65369;HTU21D;51970;53.484;49.488;2022-12-07T17:50:30;-11.20;71.10
65369;HTU21D;51970;53.484;49.488;2022-12-07T17:53:56;-7.91;70.93
65369;HTU21D;51970;53.484;49.488;2022-12-07T17:57:34;-12.04;70.92
65369;HTU21D;51970;53.484;49.488;2022-12-07T18:04:37;-12.23;71.00
65369;HTU21D;51970;53.484;49.488;2022-12-07T18:08:30;-12.21;70.87
65369;HTU21D;51970;53.484;49.488;2022-12-07T18:12:00;-12.27;70.79
65369;HTU21D;51970;53.484;49.488;2022-12-07T18:16:19;-12.04;70.92
65369;HTU21D;51970;53.484;49.488;2022-12-07T18:19:28;-5.81;71.18
65369;HTU21D;51970;53.484;49.488;2022-12-07T18:22:04;-12.43;71.53
65369;HTU21D;51970;53.484;49.488;2022-12-07T18:25:05;-10.88;71.96
65369;HTU21D;51970;53.484;49.488;2022-12-07T18:27:48;-12.11;71.87
65369;HTU21D;51970;53.484;49.488;2022-12-07T18:30:46;-12.28;71.26
65369;HTU21D;51970;53.484;49.488;2022-12-07T18:33:33;-12.33;71.25
65369;HTU21D;51970;53.484;49.488;2022-12-07T18:36:31;-9.42;71.22
65369;HTU21D;51970;53.484;49.488;2022-12-07T18:39:25;-9.98;71.11
65369;HTU21D;51970;53.484;49.488;2022-12-07T18:41:54;-9.84;71.25
65369;HTU21D;51970;53.484;49.488;2022-12-07T18:44:39;-10.52;71.50
65369;HTU21D;51970;53.484;49.488;2022-12-07T18:47:07;-8.82;71.73
65369;HTU21D;51970;53.484;49.488;2022-12-07T18:49:46;-4.70;71.74
65369;HTU21D;51970;53.484;49.488;2022-12-07T18:52:18;-12.22;71.91
65369;HTU21D;51970;53.484;49.488;2022-12-07T18:54:59;-11.25;71.55
65369;HTU21D;51970;53.484;49.488;2022-12-07T19:03:49;-7.71;71.53
65369;HTU21D;51970;53.484;49.488;2022-12-07T19:06:18;-12.22;71.55
65369;HTU21D;51970;53.484;49.488;2022-12-07T19:09:02;-12.07;71.35
65369;HTU21D;51970;53.484;49.488;2022-12-07T19:11:52;-11.94;71.48
65369;HTU21D;51970;53.484;49.488;2022-12-07T19:14:39;-10.07;71.44
65369;HTU21D;51970;53.484;49.488;2022-12-07T19:17:17;-12.09;71.67
65369;HTU21D;51970;53.484;49.488;2022-12-07T19:19:46;-11.36;71.85
65369;HTU21D;51970;53.484;49.488;2022-12-07T19:22:16;-10.75;71.84
65369;HTU21D;51970;53.484;49.488;2022-12-07T19:25:25;-11.69;71.80
65369;HTU21D;51970;53.484;49.488;2022-12-07T19:28:41;-10.18;72.05
65369;HTU21D;51970;53.484;49.488;2022-12-07T19:31:11;-11.00;72.03
65369;HTU21D;51970;53.484;49.488;2022-12-07T19:33:58;-10.47;71.74
65369;HTU21D;51970;53.484;49.488;2022-12-07T19:36:25;-12.06;72.16
65369;HTU21D;51970;53.484;49.488;2022-12-07T19:38:51;-12.40;72.40
65369;HTU21D;51970;53.484;49.488;2022-12-07T19:41:22;-12.36;72.70
65369;HTU21D;51970;53.484;49.488;2022-12-07T19:44:12;-9.91;72.38
65369;HTU21D;51970;53.484;49.488;2022-12-07T19:46:46;-10.20;72.61
65369;HTU21D;51970;53.484;49.488;2022-12-07T19:49:36;-9.36;71.93
65369;HTU21D;51970;53.484;49.488;2022-12-07T19:52:05;-8.80;72.18
65369;HTU21D;51970;53.484;49.488;2022-12-07T19:54:38;-8.27;72.29
65369;HTU21D;51970;53.484;49.488;2022-12-07T19:57:07;-10.18;72.61
65369;HTU21D;51970;53.484;49.488;2022-12-07T19:59:41;-7.89;72.89
65369;HTU21D;51970;53.484;49.488;2022-12-07T20:02:35;-12.43;73.15
65369;HTU21D;51970;53.484;49.488;2022-12-07T20:05:13;-9.52;73.29
65369;HTU21D;51970;53.484;49.488;2022-12-07T20:07:51;-12.43;72.99
65369;HTU21D;51970;53.484;49.488;2022-12-07T20:10:18;-12.51;72.72
65369;HTU21D;51970;53.484;49.488;2022-12-07T20:12:46;-12.45;72.85
65369;HTU21D;51970;53.484;49.488;2022-12-07T20:15:37;-12.28;72.90
65369;HTU21D;51970;53.484;49.488;2022-12-07T20:18:04;-12.40;72.98
65369;HTU21D;51970;53.484;49.488;2022-12-07T20:20:30;-12.40;73.48
65369;HTU21D;51970;53.484;49.488;2022-12-07T20:22:56;-12.75;73.90
65369;HTU21D;51970;53.484;49.488;2022-12-07T20:25:22;-12.48;74.27
65369;HTU21D;51970;53.484;49.488;2022-12-07T20:27:49;-12.09;73.89
65369;HTU21D;51970;53.484;49.488;2022-12-07T20:30:20;-12.66;73.81
65369;HTU21D;51970;53.484;49.488;2022-12-07T20:32:58;-12.57;73.95
65369;HTU21D;51970;53.484;49.488;2022-12-07T20:35:32;-12.41;73.86
65369;HTU21D;51970;53.484;49.488;2022-12-07T20:37:58;-12.54;73.92
65369;HTU21D;51970;53.484;49.488;2022-12-07T20:40:25;-12.57;73.81
65369;HTU21D;51970;53.484;49.488;2022-12-07T20:42:51;-10.67;73.84
65369;HTU21D;51970;53.484;49.488;2022-12-07T20:45:17;-12.40;73.87
65369;HTU21D;51970;53.484;49.488;2022-12-07T20:47:43;-11.78;74.04
65369;HTU21D;51970;53.484;49.488;2022-12-07T20:50:10;-12.30;74.12
65369;HTU21D;51970;53.484;49.488;2022-12-07T20:52:39;-12.53;74.11
65369;HTU21D;51970;53.484;49.488;2022-12-07T20:55:05;-12.54;73.74
65369;HTU21D;51970;53.484;49.488;2022-12-07T20:57:32;-12.60;73.61
65369;HTU21D;51970;53.484;49.488;2022-12-07T20:59:59;-12.62;73.67
65369;HTU21D;51970;53.484;49.488;2022-12-07T21:02:25;-12.63;73.56
65369;HTU21D;51970;53.484;49.488;2022-12-07T21:04:51;-12.69;73.58
65369;HTU21D;51970;53.484;49.488;2022-12-07T21:07:18;-12.70;73.44
65369;HTU21D;51970;53.484;49.488;2022-12-07T21:09:47;-12.60;73.77
65369;HTU21D;51970;53.484;49.488;2022-12-07T21:12:15;-12.69;73.72
65369;HTU21D;51970;53.484;49.488;2022-12-07T21:14:42;-12.70;73.77
65369;HTU21D;51970;53.484;49.488;2022-12-07T21:17:09;-12.63;73.70
65369;HTU21D;51970;53.484;49.488;2022-12-07T21:19:36;-12.69;74.00
65369;HTU21D;51970;53.484;49.488;2022-12-07T21:22:03;-12.57;73.82
65369;HTU21D;51970;53.484;49.488;2022-12-07T21:24:31;-12.64;73.75
65369;HTU21D;51970;53.484;49.488;2022-12-07T21:26:57;-12.63;73.49
65369;HTU21D;51970;53.484;49.488;2022-12-07T21:29:24;-12.67;73.67
65369;HTU21D;51970;53.484;49.488;2022-12-07T21:31:51;-12.55;73.56
65369;HTU21D;51970;53.484;49.488;2022-12-07T21:34:19;-12.55;73.54
65369;HTU21D;51970;53.484;49.488;2022-12-07T21:36:45;-12.73;73.69
65369;HTU21D;51970;53.484;49.488;2022-12-07T21:39:11;-12.64;73.80
65369;HTU21D;51970;53.484;49.488;2022-12-07T21:41:37;-12.68;73.83
65369;HTU21D;51970;53.484;49.488;2022-12-07T21:44:06;-12.65;73.55